sensor_id;sensor_type;location;lat;lon;timestamp;pressure;altitude;pressure_sealevel;temperature;humidity
49341;BME280;35209;51.050;13.678;2023-04-09T00:01:42;100929.44;;;1.56;100.00
49341;BME280;35209;51.050;13.678;2023-04-09T00:06:43;100925.38;;;1.26;100.00
49341;BME280;35209;51.050;13.678;2023-04-09T00:11:45;100927.47;;;1.44;100.00
49341;BME280;35209;51.050;13.678;2023-04-09T00:16:47;100921.06;;;1.25;100.00
49341;BME280;35209;51.050;13.678;2023-04-09T00:21:48;100929.16;;;0.99;100.00
49341;BME280;35209;51.050;13.678;2023-04-09T00:26:50;100939.19;;;0.84;100.00
49341;BME280;35209;51.050;13.678;2023-04-09T00:31:53;100935.28;;;1.05;100.00
49341;BME280;35209;51.050;13.678;2023-04-09T00:36:55;100925.66;;;1.40;100.00
49341;BME280;35209;51.050;13.678;2023-04-09T00:41:58;100924.28;;;1.15;100.00
49341;BME280;35209;51.050;13.678;2023-04-09T00:47:03;100912.06;;;1.08;100.00
49341;BME280;35209;51.050;13.678;2023-04-09T00:52:06;100916.75;;;0.85;100.00
49341;BME280;35209;51.050;13.678;2023-04-09T00:57:08;100926.28;;;0.86;100.00
49341;BME280;35209;51.050;13.678;2023-04-09T01:02:11;100925.03;;;0.70;100.00
49341;BME280;35209;51.050;13.678;2023-04-09T01:07:44;100926.69;;;1.06;100.00
49341;BME280;35209;51.050;13.678;2023-04-09T01:13:25;100923.81;;;0.92;100.00
49341;BME280;35209;51.050;13.678;2023-04-09T01:18:34;100929.03;;;0.93;100.00
49341;BME280;35209;51.050;13.678;2023-04-09T01:29:06;100936.31;;;0.72;100.00
49341;BME280;35209;51.050;13.678;2023-04-09T01:34:09;100926.69;;;1.06;100.00
49341;BME280;35209;51.050;13.678;2023-04-09T01:39:11;100934.22;;;1.36;100.00
49341;BME280;35209;51.050;13.678;2023-04-09T01:44:14;100945.91;;;1.17;100.00
49341;BME280;35209;51.050;13.678;2023-04-09T01:49:17;100941.06;;;0.91;100.00
49341;BME280;35209;51.050;13.678;2023-04-09T01:54:19;100929.69;;;0.85;100.00
49341;BME280;35209;51.050;13.678;2023-04-09T01:59:21;100938.72;;;1.02;100.00
49341;BME280;35209;51.050;13.678;2023-04-09T02:04:28;100960.72;;;0.83;100.00
49341;BME280;35209;51.050;13.678;2023-04-09T02:09:35;100948.97;;;0.97;100.00
49341;BME280;35209;51.050;13.678;2023-04-09T02:14:37;100948.31;;;1.08;100.00
49341;BME280;35209;51.050;13.678;2023-04-09T02:19:42;100945.16;;;0.82;100.00
49341;BME280;35209;51.050;13.678;2023-04-09T02:24:45;100950.34;;;0.83;100.00
49341;BME280;35209;51.050;13.678;2023-04-09T02:29:47;100945.34;;;0.53;100.00
49341;BME280;35209;51.050;13.678;2023-04-09T02:34:49;100953.97;;;0.90;100.00
49341;BME280;35209;51.050;13.678;2023-04-09T02:39:50;100953.59;;;0.73;100.00
49341;BME280;35209;51.050;13.678;2023-04-09T02:44:52;100953.00;;;0.48;100.00
49341;BME280;35209;51.050;13.678;2023-04-09T02:49:58;100953.59;;;0.73;100.00
49341;BME280;35209;51.050;13.678;2023-04-09T02:55:01;100942.59;;;0.45;100.00
49341;BME280;35209;51.050;13.678;2023-04-09T03:00:03;100951.94;;;0.77;100.00
49341;BME280;35209;51.050;13.678;2023-04-09T03:05:06;100951.81;;;0.34;100.00
49341;BME280;35209;51.050;13.678;2023-04-09T03:10:08;100965.38;;;0.25;100.00
49341;BME280;35209;51.050;13.678;2023-04-09T03:15:10;100967.97;;;0.25;100.00
49341;BME280;35209;51.050;13.678;2023-04-09T03:20:12;100964.69;;;0.69;100.00
49341;BME280;35209;51.050;13.678;2023-04-09T03:25:14;100957.72;;;0.66;100.00
49341;BME280;35209;51.050;13.678;2023-04-09T03:30:16;100950.25;;;0.79;100.00
49341;BME280;35209;51.050;13.678;2023-04-09T03:35:19;100945.28;;;0.50;100.00
49341;BME280;35209;51.050;13.678;2023-04-09T03:40:21;100949.00;;;0.61;100.00
49341;BME280;35209;51.050;13.678;2023-04-09T03:45:23;100946.63;;;0.34;100.00
49341;BME280;35209;51.050;13.678;2023-04-09T03:50:28;100946.50;;;0.28;100.00
49341;BME280;35209;51.050;13.678;2023-04-09T03:55:30;100952.75;;;0.38;100.00
49341;BME280;35209;51.050;13.678;2023-04-09T04:00:36;100950.47;;;0.50;100.00
49341;BME280;35209;51.050;13.678;2023-04-09T04:06:01;100948.69;;;0.85;100.00
49341;BME280;35209;51.050;13.678;2023-04-09T04:11:14;100950.16;;;0.74;100.00
49341;BME280;35209;51.050;13.678;2023-04-09T04:16:16;100947.66;;;0.79;100.00
49341;BME280;35209;51.050;13.678;2023-04-09T04:21:18;100944.31;;;0.83;100.00
49341;BME280;35209;51.050;13.678;2023-04-09T04:26:29;100942.72;;;1.29;100.00
49341;BME280;35209;51.050;13.678;2023-04-09T04:31:31;100949.16;;;1.07;100.00
49341;BME280;35209;51.050;13.678;2023-04-09T04:36:35;100950.44;;;0.88;100.00
49341;BME280;35209;51.050;13.678;2023-04-09T04:41:38;100957.34;;;0.87;100.00
49341;BME280;35209;51.050;13.678;2023-04-09T04:46:48;100966.25;;;1.00;100.00
49341;BME280;35209;51.050;13.678;2023-04-09T04:51:49;100966.81;;;1.26;100.00
49341;BME280;35209;51.050;13.678;2023-04-09T04:56:52;100968.31;;;1.15;100.00
49341;BME280;35209;51.050;13.678;2023-04-09T05:02:11;100958.28;;;1.30;100.00
49341;BME280;35209;51.050;13.678;2023-04-09T05:07:33;100966.53;;;1.12;100.00
49341;BME280;35209;51.050;13.678;2023-04-09T05:12:35;100963.94;;;1.12;100.00
49341;BME280;35209;51.050;13.678;2023-04-09T05:17:38;100973.06;;;1.36;100.00
49341;BME280;35209;51.050;13.678;2023-04-09T05:22:44;100974.94;;;1.43;100.00
49341;BME280;35209;51.050;13.678;2023-04-09T05:27:46;100972.19;;;1.35;100.00
49341;BME280;35209;51.050;13.678;2023-04-09T05:32:48;100977.66;;;1.50;100.00
49341;BME280;35209;51.050;13.678;2023-04-09T05:37:51;100985.78;;;1.67;100.00
49341;BME280;35209;51.050;13.678;2023-04-09T05:42:53;100975.41;;;1.67;100.00
49341;BME280;35209;51.050;13.678;2023-04-09T05:48:05;100979.22;;;1.85;100.00
49341;BME280;35209;51.050;13.678;2023-04-09T05:53:07;100985.81;;;2.14;100.00
49341;BME280;35209;51.050;13.678;2023-04-09T05:58:14;101000.94;;;2.93;100.00
49341;BME280;35209;51.050;13.678;2023-04-09T06:03:16;100991.72;;;3.16;100.00
49341;BME280;35209;51.050;13.678;2023-04-09T06:08:18;100987.63;;;4.10;100.00
49341;BME280;35209;51.050;13.678;2023-04-09T06:13:20;100984.59;;;4.57;97.29
49341;BME280;35209;51.050;13.678;2023-04-09T06:18:22;100978.63;;;4.77;93.37
49341;BME280;35209;51.050;13.678;2023-04-09T06:23:24;100964.97;;;5.09;92.09
49341;BME280;35209;51.050;13.678;2023-04-09T06:28:27;100967.84;;;5.72;90.01
49341;BME280;35209;51.050;13.678;2023-04-09T06:33:29;100966.91;;;5.54;90.68
49341;BME280;35209;51.050;13.678;2023-04-09T06:38:31;100978.19;;;5.55;91.74
49341;BME280;35209;51.050;13.678;2023-04-09T06:43:33;100978.28;;;5.81;90.04
49341;BME280;35209;51.050;13.678;2023-04-09T06:48:35;100982.53;;;5.50;89.65
49341;BME280;35209;51.050;13.678;2023-04-09T06:53:38;100982.50;;;5.42;93.37
49341;BME280;35209;51.050;13.678;2023-04-09T06:58:40;100993.78;;;5.38;92.82
49341;BME280;35209;51.050;13.678;2023-04-09T07:03:42;100988.59;;;5.46;94.63
49341;BME280;35209;51.050;13.678;2023-04-09T07:08:43;100992.94;;;5.41;95.55
49341;BME280;35209;51.050;13.678;2023-04-09T07:13:45;100987.78;;;5.61;94.04
49341;BME280;35209;51.050;13.678;2023-04-09T07:18:47;100989.50;;;5.62;93.00
49341;BME280;35209;51.050;13.678;2023-04-09T07:23:49;100993.09;;;5.90;92.21
49341;BME280;35209;51.050;13.678;2023-04-09T07:28:51;100994.03;;;6.09;89.83
49341;BME280;35209;51.050;13.678;2023-04-09T07:33:53;101004.53;;;6.25;89.69
49341;BME280;35209;51.050;13.678;2023-04-09T07:38:55;100992.34;;;6.35;88.46
49341;BME280;35209;51.050;13.678;2023-04-09T07:43:57;100995.78;;;6.06;88.31
49341;BME280;35209;51.050;13.678;2023-04-09T07:48:59;100994.09;;;6.33;89.71
49341;BME280;35209;51.050;13.678;2023-04-09T07:54:01;100996.69;;;6.74;85.90
49341;BME280;35209;51.050;13.678;2023-04-09T07:59:03;100997.41;;;7.53;77.96
49341;BME280;35209;51.050;13.678;2023-04-09T08:04:05;100998.38;;;7.12;81.61
49341;BME280;35209;51.050;13.678;2023-04-09T08:09:07;101000.16;;;7.08;78.04
49341;BME280;35209;51.050;13.678;2023-04-09T08:14:09;101005.13;;;7.74;77.29
49341;BME280;35209;51.050;13.678;2023-04-09T08:19:14;100995.25;;;8.24;70.86
49341;BME280;35209;51.050;13.678;2023-04-09T08:24:16;100982.91;;;8.46;69.35
49341;BME280;35209;51.050;13.678;2023-04-09T08:29:18;100984.41;;;8.71;68.87
49341;BME280;35209;51.050;13.678;2023-04-09T08:34:20;100989.22;;;8.09;71.59
49341;BME280;35209;51.050;13.678;2023-04-09T08:39:22;101001.09;;;8.63;68.94
49341;BME280;35209;51.050;13.678;2023-04-09T08:44:28;101008.41;;;9.22;67.54
49341;BME280;35209;51.050;13.678;2023-04-09T08:49:30;101007.63;;;9.13;64.30
49341;BME280;35209;51.050;13.678;2023-04-09T08:54:32;101012.72;;;9.25;65.75
49341;BME280;35209;51.050;13.678;2023-04-09T08:59:34;101004.75;;;9.39;65.48
49341;BME280;35209;51.050;13.678;2023-04-09T09:04:48;100998.78;;;9.23;65.54
49341;BME280;35209;51.050;13.678;2023-04-09T09:10:00;101002.94;;;10.08;61.60
49341;BME280;35209;51.050;13.678;2023-04-09T09:15:31;100993.66;;;10.99;58.49
49341;BME280;35209;51.050;13.678;2023-04-09T09:20:33;101002.91;;;11.18;60.46
49341;BME280;35209;51.050;13.678;2023-04-09T09:25:41;101002.69;;;11.74;58.56
49341;BME280;35209;51.050;13.678;2023-04-09T09:30:45;101007.81;;;11.80;57.63
49341;BME280;35209;51.050;13.678;2023-04-09T09:35:52;100998.94;;;11.85;57.96
49341;BME280;35209;51.050;13.678;2023-04-09T09:40:55;100991.75;;;12.32;56.53
49341;BME280;35209;51.050;13.678;2023-04-09T09:45:57;100992.94;;;12.19;55.62
49341;BME280;35209;51.050;13.678;2023-04-09T09:51:01;100983.81;;;11.53;57.82
49341;BME280;35209;51.050;13.678;2023-04-09T09:56:05;100987.38;;;11.93;56.33
49341;BME280;35209;51.050;13.678;2023-04-09T10:01:08;100985.75;;;11.87;56.64
49341;BME280;35209;51.050;13.678;2023-04-09T10:06:12;100975.84;;;11.98;57.63
49341;BME280;35209;51.050;13.678;2023-04-09T10:11:15;100967.13;;;11.96;56.47
49341;BME280;35209;51.050;13.678;2023-04-09T10:16:18;100961.22;;;11.85;57.21
49341;BME280;35209;51.050;13.678;2023-04-09T10:21:31;100963.63;;;12.33;54.56
49341;BME280;35209;51.050;13.678;2023-04-09T10:26:39;100958.81;;;12.13;55.55
49341;BME280;35209;51.050;13.678;2023-04-09T10:31:47;100958.50;;;12.27;55.65
49341;BME280;35209;51.050;13.678;2023-04-09T10:36:52;100954.03;;;12.29;54.37
49341;BME280;35209;51.050;13.678;2023-04-09T10:41:57;100959.25;;;12.32;54.24
49341;BME280;35209;51.050;13.678;2023-04-09T10:46:59;100935.88;;;12.17;55.46
49341;BME280;35209;51.050;13.678;2023-04-09T10:52:08;100941.06;;;11.81;56.66
49341;BME280;35209;51.050;13.678;2023-04-09T10:57:14;100933.94;;;11.88;57.38
49341;BME280;35209;51.050;13.678;2023-04-09T11:02:30;100927.19;;;11.74;58.31
49341;BME280;35209;51.050;13.678;2023-04-09T11:07:42;100926.97;;;11.85;59.01
49341;BME280;35209;51.050;13.678;2023-04-09T11:12:46;100926.13;;;11.83;57.84
49341;BME280;35209;51.050;13.678;2023-04-09T11:17:49;100925.66;;;12.38;56.17
49341;BME280;35209;51.050;13.678;2023-04-09T11:22:53;100925.28;;;12.20;55.01
49341;BME280;35209;51.050;13.678;2023-04-09T11:27:55;100923.34;;;12.62;55.33
49341;BME280;35209;51.050;13.678;2023-04-09T11:32:56;100920.50;;;13.02;54.27
49341;BME280;35209;51.050;13.678;2023-04-09T11:37:58;100927.69;;;12.97;53.99
49341;BME280;35209;51.050;13.678;2023-04-09T11:43:00;100919.56;;;13.66;52.73
49341;BME280;35209;51.050;13.678;2023-04-09T11:48:03;100919.13;;;12.87;52.09
49341;BME280;35209;51.050;13.678;2023-04-09T11:53:16;100924.41;;;12.19;55.47
49341;BME280;35209;51.050;13.678;2023-04-09T11:58:21;100916.66;;;12.81;54.82
49341;BME280;35209;51.050;13.678;2023-04-09T12:03:28;100913.16;;;12.81;53.74
49341;BME280;35209;51.050;13.678;2023-04-09T12:08:35;100913.44;;;12.70;53.99
49341;BME280;35209;51.050;13.678;2023-04-09T12:13:38;100915.53;;;13.23;54.34
49341;BME280;35209;51.050;13.678;2023-04-09T12:18:46;100922.75;;;13.14;51.57
49341;BME280;35209;51.050;13.678;2023-04-09T12:23:48;100921.34;;;13.65;51.25
49341;BME280;35209;51.050;13.678;2023-04-09T12:28:50;100917.19;;;13.27;51.82
49341;BME280;35209;51.050;13.678;2023-04-09T12:33:52;100922.75;;;12.83;51.88
49341;BME280;35209;51.050;13.678;2023-04-09T12:38:53;100918.00;;;12.96;53.60
49341;BME280;35209;51.050;13.678;2023-04-09T12:43:56;100914.69;;;13.21;50.92
49341;BME280;35209;51.050;13.678;2023-04-09T12:48:58;100910.22;;;12.92;52.49
49341;BME280;35209;51.050;13.678;2023-04-09T12:53:59;100904.38;;;12.80;53.66
49341;BME280;35209;51.050;13.678;2023-04-09T12:59:04;100904.31;;;12.82;53.21
49341;BME280;35209;51.050;13.678;2023-04-09T13:04:06;100898.72;;;12.94;54.75
49341;BME280;35209;51.050;13.678;2023-04-09T13:09:08;100899.72;;;13.21;50.61
49341;BME280;35209;51.050;13.678;2023-04-09T13:14:10;100897.06;;;13.23;51.09
49341;BME280;35209;51.050;13.678;2023-04-09T13:19:14;100888.97;;;12.96;51.78
49341;BME280;35209;51.050;13.678;2023-04-09T13:24:15;100884.94;;;13.16;50.72
49341;BME280;35209;51.050;13.678;2023-04-09T13:29:17;100883.28;;;13.11;50.34
49341;BME280;35209;51.050;13.678;2023-04-09T13:34:19;100875.06;;;13.22;49.60
49341;BME280;35209;51.050;13.678;2023-04-09T13:39:21;100871.59;;;13.20;48.94
49341;BME280;35209;51.050;13.678;2023-04-09T13:44:26;100871.94;;;13.39;48.99
49341;BME280;35209;51.050;13.678;2023-04-09T13:49:27;100869.78;;;13.52;47.67
49341;BME280;35209;51.050;13.678;2023-04-09T13:54:31;100859.09;;;13.27;48.16
49341;BME280;35209;51.050;13.678;2023-04-09T13:59:33;100857.28;;;12.98;47.77
49341;BME280;35209;51.050;13.678;2023-04-09T14:04:35;100857.56;;;12.87;48.39
49341;BME280;35209;51.050;13.678;2023-04-09T14:09:37;100845.56;;;12.77;48.23
49341;BME280;35209;51.050;13.678;2023-04-09T14:14:39;100854.50;;;13.02;47.84
49341;BME280;35209;51.050;13.678;2023-04-09T14:19:41;100846.06;;;12.90;47.68
49341;BME280;35209;51.050;13.678;2023-04-09T14:24:43;100839.66;;;12.98;47.25
49341;BME280;35209;51.050;13.678;2023-04-09T14:29:44;100841.13;;;13.08;46.08
49341;BME280;35209;51.050;13.678;2023-04-09T14:34:46;100833.56;;;12.96;46.40
49341;BME280;35209;51.050;13.678;2023-04-09T14:39:48;100836.44;;;12.88;47.16
49341;BME280;35209;51.050;13.678;2023-04-09T14:44:50;100835.31;;;12.97;48.00
49341;BME280;35209;51.050;13.678;2023-04-09T14:49:52;100838.69;;;12.71;48.65
49341;BME280;35209;51.050;13.678;2023-04-09T14:54:54;100833.81;;;12.56;49.28
49341;BME280;35209;51.050;13.678;2023-04-09T14:59:55;100829.63;;;12.49;48.13
49341;BME280;35209;51.050;13.678;2023-04-09T15:04:57;100832.50;;;12.72;47.33
49341;BME280;35209;51.050;13.678;2023-04-09T15:09:59;100820.41;;;12.63;46.55
49341;BME280;35209;51.050;13.678;2023-04-09T15:15:04;100826.28;;;12.42;46.71
49341;BME280;35209;51.050;13.678;2023-04-09T15:20:07;100816.69;;;12.40;46.45
49341;BME280;35209;51.050;13.678;2023-04-09T15:25:09;100821.00;;;12.42;46.30
49341;BME280;35209;51.050;13.678;2023-04-09T15:30:14;100817.31;;;12.49;45.43
49341;BME280;35209;51.050;13.678;2023-04-09T15:35:16;100817.72;;;12.65;44.97
49341;BME280;35209;51.050;13.678;2023-04-09T15:40:24;100811.84;;;12.55;46.58
49341;BME280;35209;51.050;13.678;2023-04-09T15:45:26;100813.34;;;12.33;47.41
49341;BME280;35209;51.050;13.678;2023-04-09T15:50:27;100812.34;;;12.37;47.94
49341;BME280;35209;51.050;13.678;2023-04-09T15:55:30;100818.06;;;12.20;49.48
49341;BME280;35209;51.050;13.678;2023-04-09T16:00:32;100814.25;;;11.98;50.25
49341;BME280;35209;51.050;13.678;2023-04-09T16:05:34;100811.44;;;12.04;50.33
49341;BME280;35209;51.050;13.678;2023-04-09T16:10:36;100814.63;;;12.17;48.84
49341;BME280;35209;51.050;13.678;2023-04-09T16:15:38;100812.84;;;12.19;48.35
49341;BME280;35209;51.050;13.678;2023-04-09T16:20:39;100812.91;;;12.16;49.45
49341;BME280;35209;51.050;13.678;2023-04-09T16:25:41;100814.56;;;12.20;50.69
49341;BME280;35209;51.050;13.678;2023-04-09T16:30:43;100812.00;;;11.81;51.99
49341;BME280;35209;51.050;13.678;2023-04-09T16:35:45;100821.84;;;11.73;52.53
49341;BME280;35209;51.050;13.678;2023-04-09T16:40:47;100813.34;;;11.61;53.35
49341;BME280;35209;51.050;13.678;2023-04-09T16:45:48;100819.03;;;11.80;52.76
49341;BME280;35209;51.050;13.678;2023-04-09T16:50:50;100819.78;;;11.87;53.56
49341;BME280;35209;51.050;13.678;2023-04-09T16:55:52;100816.03;;;11.60;54.41
49341;BME280;35209;51.050;13.678;2023-04-09T17:00:54;100819.06;;;11.42;55.33
49341;BME280;35209;51.050;13.678;2023-04-09T17:05:55;100814.88;;;11.33;56.14
49341;BME280;35209;51.050;13.678;2023-04-09T17:10:57;100829.13;;;11.23;56.18
49341;BME280;35209;51.050;13.678;2023-04-09T17:16:03;100827.56;;;11.16;55.95
49341;BME280;35209;51.050;13.678;2023-04-09T17:21:05;100830.53;;;10.97;56.85
49341;BME280;35209;51.050;13.678;2023-04-09T17:26:07;100833.28;;;10.93;57.11
49341;BME280;35209;51.050;13.678;2023-04-09T17:31:13;100832.50;;;10.88;57.00
49341;BME280;35209;51.050;13.678;2023-04-09T17:36:17;100831.69;;;10.85;57.45
49341;BME280;35209;51.050;13.678;2023-04-09T17:41:19;100833.78;;;10.68;58.16
49341;BME280;35209;51.050;13.678;2023-04-09T17:46:21;100827.66;;;10.68;58.56
49341;BME280;35209;51.050;13.678;2023-04-09T17:51:24;100828.78;;;10.54;59.19
49341;BME280;35209;51.050;13.678;2023-04-09T17:56:27;100835.09;;;10.44;62.03
49341;BME280;35209;51.050;13.678;2023-04-09T18:01:28;100840.59;;;10.30;65.52
49341;BME280;35209;51.050;13.678;2023-04-09T18:06:30;100840.19;;;10.02;67.19
49341;BME280;35209;51.050;13.678;2023-04-09T18:11:32;100837.81;;;9.85;68.90
49341;BME280;35209;51.050;13.678;2023-04-09T18:16:37;100838.75;;;9.81;70.39
49341;BME280;35209;51.050;13.678;2023-04-09T18:21:39;100838.63;;;9.92;68.68
49341;BME280;35209;51.050;13.678;2023-04-09T18:26:42;100846.53;;;9.89;68.52
49341;BME280;35209;51.050;13.678;2023-04-09T18:31:44;100852.97;;;9.70;68.94
49341;BME280;35209;51.050;13.678;2023-04-09T18:36:46;100854.78;;;9.65;68.95
49341;BME280;35209;51.050;13.678;2023-04-09T18:41:49;100861.84;;;9.61;70.81
49341;BME280;35209;51.050;13.678;2023-04-09T18:46:51;100864.69;;;9.43;72.08
49341;BME280;35209;51.050;13.678;2023-04-09T18:51:53;100869.34;;;9.25;73.17
49341;BME280;35209;51.050;13.678;2023-04-09T18:56:55;100876.38;;;9.22;74.19
49341;BME280;35209;51.050;13.678;2023-04-09T19:01:57;100872.00;;;9.21;75.24
49341;BME280;35209;51.050;13.678;2023-04-09T19:07:00;100864.19;;;9.18;75.20
49341;BME280;35209;51.050;13.678;2023-04-09T19:12:02;100866.06;;;9.08;75.68
49341;BME280;35209;51.050;13.678;2023-04-09T19:17:04;100867.13;;;8.92;75.84
49341;BME280;35209;51.050;13.678;2023-04-09T19:22:06;100864.63;;;8.79;76.15
49341;BME280;35209;51.050;13.678;2023-04-09T19:27:08;100863.28;;;8.42;77.18
49341;BME280;35209;51.050;13.678;2023-04-09T19:32:10;100860.78;;;8.25;77.56
49341;BME280;35209;51.050;13.678;2023-04-09T19:37:13;100870.06;;;8.63;78.54
49341;BME280;35209;51.050;13.678;2023-04-09T19:42:16;100871.19;;;8.34;78.90
49341;BME280;35209;51.050;13.678;2023-04-09T19:47:18;100866.13;;;8.16;79.62
49341;BME280;35209;51.050;13.678;2023-04-09T19:52:20;100862.88;;;7.84;80.96
49341;BME280;35209;51.050;13.678;2023-04-09T19:57:22;100864.59;;;7.87;81.70
49341;BME280;35209;51.050;13.678;2023-04-09T20:02:24;100867.28;;;7.78;81.25
49341;BME280;35209;51.050;13.678;2023-04-09T20:07:26;100868.16;;;7.77;81.77
49341;BME280;35209;51.050;13.678;2023-04-09T20:12:28;100870.78;;;7.74;81.64
49341;BME280;35209;51.050;13.678;2023-04-09T20:17:30;100876.88;;;7.80;80.53
49341;BME280;35209;51.050;13.678;2023-04-09T20:22:32;100881.22;;;7.81;80.66
49341;BME280;35209;51.050;13.678;2023-04-09T20:27:34;100872.63;;;7.63;81.33
49341;BME280;35209;51.050;13.678;2023-04-09T20:32:38;100875.34;;;7.44;82.63
49341;BME280;35209;51.050;13.678;2023-04-09T20:37:39;100869.28;;;7.36;83.77
49341;BME280;35209;51.050;13.678;2023-04-09T20:42:42;100877.97;;;7.41;83.46
49341;BME280;35209;51.050;13.678;2023-04-09T20:47:43;100866.72;;;7.24;84.63
49341;BME280;35209;51.050;13.678;2023-04-09T20:52:45;100864.16;;;7.18;85.13
49341;BME280;35209;51.050;13.678;2023-04-09T20:57:47;100861.53;;;7.12;86.29
49341;BME280;35209;51.050;13.678;2023-04-09T21:02:49;100873.69;;;7.28;86.23
49341;BME280;35209;51.050;13.678;2023-04-09T21:07:52;100870.34;;;6.92;88.07
49341;BME280;35209;51.050;13.678;2023-04-09T21:12:53;100872.88;;;7.07;86.74
49341;BME280;35209;51.050;13.678;2023-04-09T21:17:55;100871.25;;;6.79;87.00
49341;BME280;35209;51.050;13.678;2023-04-09T21:22:57;100867.78;;;6.75;87.69
49341;BME280;35209;51.050;13.678;2023-04-09T21:27:59;100879.94;;;6.81;88.46
49341;BME280;35209;51.050;13.678;2023-04-09T21:33:05;100889.56;;;6.74;87.68
49341;BME280;35209;51.050;13.678;2023-04-09T21:38:07;100886.91;;;6.88;87.08
49341;BME280;35209;51.050;13.678;2023-04-09T21:43:09;100881.72;;;6.76;86.59
49341;BME280;35209;51.050;13.678;2023-04-09T21:48:11;100880.84;;;6.80;87.62
49341;BME280;35209;51.050;13.678;2023-04-09T21:53:14;100883.47;;;6.68;88.98
49341;BME280;35209;51.050;13.678;2023-04-09T21:58:15;100880.88;;;6.65;89.38
49341;BME280;35209;51.050;13.678;2023-04-09T22:03:17;100884.31;;;6.76;88.93
49341;BME280;35209;51.050;13.678;2023-04-09T22:08:19;100876.50;;;6.74;88.74
49341;BME280;35209;51.050;13.678;2023-04-09T22:13:21;100879.13;;;6.74;88.69
49341;BME280;35209;51.050;13.678;2023-04-09T22:18:22;100875.66;;;6.69;88.92
49341;BME280;35209;51.050;13.678;2023-04-09T22:23:24;100873.03;;;6.62;89.01
49341;BME280;35209;51.050;13.678;2023-04-09T22:28:27;100880.88;;;6.58;89.21
49341;BME280;35209;51.050;13.678;2023-04-09T22:33:32;100880.88;;;6.66;89.50
49341;BME280;35209;51.050;13.678;2023-04-09T22:38:34;100880.91;;;6.49;89.49
49341;BME280;35209;51.050;13.678;2023-04-09T22:43:36;100879.19;;;6.15;90.52
49341;BME280;35209;51.050;13.678;2023-04-09T22:48:38;100880.94;;;6.05;91.31
49341;BME280;35209;51.050;13.678;2023-04-09T22:53:45;100873.13;;;6.06;91.81
49341;BME280;35209;51.050;13.678;2023-04-09T22:58:47;100886.13;;;6.02;92.53
49341;BME280;35209;51.050;13.678;2023-04-09T23:03:49;100879.13;;;5.84;93.21
49341;BME280;35209;51.050;13.678;2023-04-09T23:08:51;100885.22;;;5.72;93.84
49341;BME280;35209;51.050;13.678;2023-04-09T23:13:53;100876.53;;;5.72;94.04
49341;BME280;35209;51.050;13.678;2023-04-09T23:18:55;100869.53;;;5.60;95.07
49341;BME280;35209;51.050;13.678;2023-04-09T23:23:57;100871.22;;;5.40;94.79
49341;BME280;35209;51.050;13.678;2023-04-09T23:28:58;100868.69;;;5.60;94.24
49341;BME280;35209;51.050;13.678;2023-04-09T23:34:01;100862.53;;;5.39;94.75
49341;BME280;35209;51.050;13.678;2023-04-09T23:39:03;100859.09;;;5.48;93.84
49341;BME280;35209;51.050;13.678;2023-04-09T23:44:04;100866.03;;;5.38;94.00
49341;BME280;35209;51.050;13.678;2023-04-09T23:49:06;100875.53;;;5.24;94.44
49341;BME280;35209;51.050;13.678;2023-04-09T23:54:09;100871.03;;;4.83;95.80
49341;BME280;35209;51.050;13.678;2023-04-09T23:59:11;100875.34;;;4.81;97.22
